sensor_id;sensor_type;location;lat;lon;timestamp;P1;durP1;ratioP1;P2;durP2;ratioP2
80681;SDS011;70045;40.200;44.582;2024-02-23T00:00:34;8.02;;;4.35;;
80681;SDS011;70045;40.200;44.582;2024-02-23T00:03:00;8.35;;;4.82;;
80681;SDS011;70045;40.200;44.582;2024-02-23T00:05:29;9.75;;;4.72;;
80681;SDS011;70045;40.200;44.582;2024-02-23T00:07:54;7.70;;;4.32;;
80681;SDS011;70045;40.200;44.582;2024-02-23T00:10:20;8.05;;;4.38;;
80681;SDS011;70045;40.200;44.582;2024-02-23T00:12:45;8.63;;;4.32;;
80681;SDS011;70045;40.200;44.582;2024-02-23T00:15:10;6.88;;;3.88;;
80681;SDS011;70045;40.200;44.582;2024-02-23T00:17:39;7.13;;;3.67;;
80681;SDS011;70045;40.200;44.582;2024-02-23T00:20:05;8.27;;;4.22;;
80681;SDS011;70045;40.200;44.582;2024-02-23T00:22:33;7.13;;;4.07;;
80681;SDS011;70045;40.200;44.582;2024-02-23T00:24:59;8.57;;;4.93;;
80681;SDS011;70045;40.200;44.582;2024-02-23T00:27:24;7.30;;;4.07;;
80681;SDS011;70045;40.200;44.582;2024-02-23T00:29:52;6.80;;;3.92;;
80681;SDS011;70045;40.200;44.582;2024-02-23T00:32:17;7.57;;;4.38;;
80681;SDS011;70045;40.200;44.582;2024-02-23T00:34:43;6.45;;;3.90;;
80681;SDS011;70045;40.200;44.582;2024-02-23T00:37:08;5.95;;;3.13;;
80681;SDS011;70045;40.200;44.582;2024-02-23T00:39:34;5.72;;;3.30;;
80681;SDS011;70045;40.200;44.582;2024-02-23T00:42:03;7.35;;;3.95;;
80681;SDS011;70045;40.200;44.582;2024-02-23T00:44:28;6.38;;;4.13;;
80681;SDS011;70045;40.200;44.582;2024-02-23T00:46:54;6.38;;;3.65;;
80681;SDS011;70045;40.200;44.582;2024-02-23T00:49:19;6.25;;;3.40;;
80681;SDS011;70045;40.200;44.582;2024-02-23T00:51:44;6.50;;;3.70;;
80681;SDS011;70045;40.200;44.582;2024-02-23T00:54:13;6.47;;;3.25;;
80681;SDS011;70045;40.200;44.582;2024-02-23T00:56:39;5.85;;;3.30;;
80681;SDS011;70045;40.200;44.582;2024-02-23T00:59:04;6.30;;;3.90;;
80681;SDS011;70045;40.200;44.582;2024-02-23T01:01:30;5.75;;;3.42;;
80681;SDS011;70045;40.200;44.582;2024-02-23T01:03:55;5.70;;;3.45;;
80681;SDS011;70045;40.200;44.582;2024-02-23T01:06:23;6.22;;;3.50;;
80681;SDS011;70045;40.200;44.582;2024-02-23T01:08:49;6.15;;;3.53;;
80681;SDS011;70045;40.200;44.582;2024-02-23T01:11:14;5.80;;;3.58;;
80681;SDS011;70045;40.200;44.582;2024-02-23T01:13:39;8.00;;;3.85;;
80681;SDS011;70045;40.200;44.582;2024-02-23T01:16:05;7.72;;;4.25;;
80681;SDS011;70045;40.200;44.582;2024-02-23T01:18:33;8.82;;;4.10;;
80681;SDS011;70045;40.200;44.582;2024-02-23T01:20:59;6.72;;;3.83;;
80681;SDS011;70045;40.200;44.582;2024-02-23T01:23:24;8.77;;;4.18;;
80681;SDS011;70045;40.200;44.582;2024-02-23T01:25:49;7.35;;;4.25;;
80681;SDS011;70045;40.200;44.582;2024-02-23T01:28:15;8.07;;;4.30;;
80681;SDS011;70045;40.200;44.582;2024-02-23T01:30:44;7.10;;;3.88;;
80681;SDS011;70045;40.200;44.582;2024-02-23T01:33:09;8.02;;;4.20;;
80681;SDS011;70045;40.200;44.582;2024-02-23T01:35:35;6.45;;;3.60;;
80681;SDS011;70045;40.200;44.582;2024-02-23T01:38:00;7.57;;;3.90;;
80681;SDS011;70045;40.200;44.582;2024-02-23T01:40:25;6.65;;;4.22;;
80681;SDS011;70045;40.200;44.582;2024-02-23T01:43:03;7.45;;;4.03;;
80681;SDS011;70045;40.200;44.582;2024-02-23T01:45:29;6.22;;;3.67;;
80681;SDS011;70045;40.200;44.582;2024-02-23T01:47:55;7.28;;;3.80;;
80681;SDS011;70045;40.200;44.582;2024-02-23T01:50:20;6.18;;;3.50;;
80681;SDS011;70045;40.200;44.582;2024-02-23T01:52:46;5.93;;;3.58;;
80681;SDS011;70045;40.200;44.582;2024-02-23T01:55:14;6.38;;;3.80;;
80681;SDS011;70045;40.200;44.582;2024-02-23T01:57:40;5.90;;;3.40;;
80681;SDS011;70045;40.200;44.582;2024-02-23T02:00:05;8.85;;;5.07;;
80681;SDS011;70045;40.200;44.582;2024-02-23T02:02:34;7.57;;;4.18;;
80681;SDS011;70045;40.200;44.582;2024-02-23T02:04:59;7.07;;;4.10;;
80681;SDS011;70045;40.200;44.582;2024-02-23T02:07:28;6.65;;;3.88;;
80681;SDS011;70045;40.200;44.582;2024-02-23T02:09:54;7.35;;;3.90;;
80681;SDS011;70045;40.200;44.582;2024-02-23T02:12:28;7.20;;;3.90;;
80681;SDS011;70045;40.200;44.582;2024-02-23T02:14:54;6.20;;;3.78;;
80681;SDS011;70045;40.200;44.582;2024-02-23T02:17:19;7.53;;;4.15;;
80681;SDS011;70045;40.200;44.582;2024-02-23T02:19:48;5.45;;;3.25;;
80681;SDS011;70045;40.200;44.582;2024-02-23T02:22:13;7.22;;;3.40;;
80681;SDS011;70045;40.200;44.582;2024-02-23T02:24:39;7.22;;;3.80;;
80681;SDS011;70045;40.200;44.582;2024-02-23T02:27:04;8.05;;;3.15;;
80681;SDS011;70045;40.200;44.582;2024-02-23T02:29:30;7.20;;;3.63;;
80681;SDS011;70045;40.200;44.582;2024-02-23T02:31:58;6.00;;;3.33;;
80681;SDS011;70045;40.200;44.582;2024-02-23T02:34:24;5.97;;;3.22;;
80681;SDS011;70045;40.200;44.582;2024-02-23T02:36:49;4.68;;;2.90;;
80681;SDS011;70045;40.200;44.582;2024-02-23T02:39:15;4.70;;;2.97;;
80681;SDS011;70045;40.200;44.582;2024-02-23T02:41:40;6.45;;;3.25;;
80681;SDS011;70045;40.200;44.582;2024-02-23T02:44:09;4.78;;;3.08;;
80681;SDS011;70045;40.200;44.582;2024-02-23T02:46:35;5.30;;;3.10;;
80681;SDS011;70045;40.200;44.582;2024-02-23T02:49:00;6.90;;;2.90;;
80681;SDS011;70045;40.200;44.582;2024-02-23T02:51:26;5.00;;;2.80;;
80681;SDS011;70045;40.200;44.582;2024-02-23T02:53:51;5.05;;;2.95;;
80681;SDS011;70045;40.200;44.582;2024-02-23T02:56:19;4.47;;;2.63;;
80681;SDS011;70045;40.200;44.582;2024-02-23T02:58:45;5.40;;;2.83;;
80681;SDS011;70045;40.200;44.582;2024-02-23T03:01:10;4.75;;;2.35;;
80681;SDS011;70045;40.200;44.582;2024-02-23T03:03:36;5.43;;;2.80;;
80681;SDS011;70045;40.200;44.582;2024-02-23T03:06:01;4.20;;;2.45;;
80681;SDS011;70045;40.200;44.582;2024-02-23T03:08:29;5.32;;;2.80;;
80681;SDS011;70045;40.200;44.582;2024-02-23T03:10:55;8.77;;;3.00;;
80681;SDS011;70045;40.200;44.582;2024-02-23T03:13:20;5.65;;;3.08;;
80681;SDS011;70045;40.200;44.582;2024-02-23T03:15:45;4.80;;;2.80;;
80681;SDS011;70045;40.200;44.582;2024-02-23T03:18:11;5.95;;;2.67;;
80681;SDS011;70045;40.200;44.582;2024-02-23T03:20:40;4.20;;;2.60;;
80681;SDS011;70045;40.200;44.582;2024-02-23T03:23:06;4.45;;;2.78;;
80681;SDS011;70045;40.200;44.582;2024-02-23T03:25:32;3.88;;;2.40;;
80681;SDS011;70045;40.200;44.582;2024-02-23T03:27:57;4.55;;;2.70;;
80681;SDS011;70045;40.200;44.582;2024-02-23T03:30:23;5.57;;;3.10;;
80681;SDS011;70045;40.200;44.582;2024-02-23T03:32:51;5.78;;;2.80;;
80681;SDS011;70045;40.200;44.582;2024-02-23T03:35:17;5.55;;;3.13;;
80681;SDS011;70045;40.200;44.582;2024-02-23T03:37:42;6.63;;;3.35;;
80681;SDS011;70045;40.200;44.582;2024-02-23T03:40:08;5.78;;;3.30;;
80681;SDS011;70045;40.200;44.582;2024-02-23T03:42:34;6.95;;;3.28;;
80681;SDS011;70045;40.200;44.582;2024-02-23T03:45:04;5.70;;;3.17;;
80681;SDS011;70045;40.200;44.582;2024-02-23T03:47:29;5.70;;;3.33;;
80681;SDS011;70045;40.200;44.582;2024-02-23T03:49:55;12.13;;;5.07;;
80681;SDS011;70045;40.200;44.582;2024-02-23T03:52:20;8.18;;;4.53;;
80681;SDS011;70045;40.200;44.582;2024-02-23T03:54:46;9.98;;;4.88;;
80681;SDS011;70045;40.200;44.582;2024-02-23T03:57:14;10.75;;;4.60;;
80681;SDS011;70045;40.200;44.582;2024-02-23T03:59:39;10.45;;;4.35;;
80681;SDS011;70045;40.200;44.582;2024-02-23T04:02:05;8.52;;;4.32;;
80681;SDS011;70045;40.200;44.582;2024-02-23T04:04:30;11.55;;;4.60;;
80681;SDS011;70045;40.200;44.582;2024-02-23T04:06:56;11.07;;;4.70;;
80681;SDS011;70045;40.200;44.582;2024-02-23T04:09:24;8.63;;;4.10;;
80681;SDS011;70045;40.200;44.582;2024-02-23T04:11:50;7.45;;;3.75;;
80681;SDS011;70045;40.200;44.582;2024-02-23T04:14:15;7.85;;;4.03;;
80681;SDS011;70045;40.200;44.582;2024-02-23T04:16:41;8.15;;;3.80;;
80681;SDS011;70045;40.200;44.582;2024-02-23T04:19:06;9.93;;;4.20;;
80681;SDS011;70045;40.200;44.582;2024-02-23T04:21:34;10.07;;;4.88;;
80681;SDS011;70045;40.200;44.582;2024-02-23T04:24:00;8.35;;;4.47;;
80681;SDS011;70045;40.200;44.582;2024-02-23T04:26:25;9.40;;;4.53;;
80681;SDS011;70045;40.200;44.582;2024-02-23T04:28:51;10.55;;;4.95;;
80681;SDS011;70045;40.200;44.582;2024-02-23T04:31:16;9.65;;;5.55;;
80681;SDS011;70045;40.200;44.582;2024-02-23T04:33:45;9.65;;;5.78;;
80681;SDS011;70045;40.200;44.582;2024-02-23T04:36:10;11.90;;;5.13;;
80681;SDS011;70045;40.200;44.582;2024-02-23T04:38:36;8.95;;;5.22;;
80681;SDS011;70045;40.200;44.582;2024-02-23T04:41:04;10.73;;;5.57;;
80681;SDS011;70045;40.200;44.582;2024-02-23T04:43:30;9.95;;;5.55;;
80681;SDS011;70045;40.200;44.582;2024-02-23T04:45:58;12.32;;;5.65;;
80681;SDS011;70045;40.200;44.582;2024-02-23T04:48:23;13.43;;;6.60;;
80681;SDS011;70045;40.200;44.582;2024-02-23T04:50:49;12.65;;;6.65;;
80681;SDS011;70045;40.200;44.582;2024-02-23T04:53:14;10.55;;;6.28;;
80681;SDS011;70045;40.200;44.582;2024-02-23T04:55:39;12.90;;;6.85;;
80681;SDS011;70045;40.200;44.582;2024-02-23T04:58:08;14.48;;;7.45;;
80681;SDS011;70045;40.200;44.582;2024-02-23T05:00:34;9.95;;;5.32;;
80681;SDS011;70045;40.200;44.582;2024-02-23T05:02:59;9.90;;;5.50;;
80681;SDS011;70045;40.200;44.582;2024-02-23T05:05:25;9.43;;;5.45;;
80681;SDS011;70045;40.200;44.582;2024-02-23T05:07:50;10.98;;;5.50;;
80681;SDS011;70045;40.200;44.582;2024-02-23T05:10:19;14.90;;;6.43;;
80681;SDS011;70045;40.200;44.582;2024-02-23T05:12:45;12.52;;;6.25;;
80681;SDS011;70045;40.200;44.582;2024-02-23T05:15:10;12.35;;;6.38;;
80681;SDS011;70045;40.200;44.582;2024-02-23T05:17:36;12.82;;;6.53;;
80681;SDS011;70045;40.200;44.582;2024-02-23T05:20:02;12.85;;;6.20;;
80681;SDS011;70045;40.200;44.582;2024-02-23T05:22:30;12.63;;;7.03;;
80681;SDS011;70045;40.200;44.582;2024-02-23T05:24:55;14.32;;;6.55;;
80681;SDS011;70045;40.200;44.582;2024-02-23T05:27:21;14.13;;;7.05;;
80681;SDS011;70045;40.200;44.582;2024-02-23T05:29:46;14.15;;;7.45;;
80681;SDS011;70045;40.200;44.582;2024-02-23T05:32:11;14.75;;;7.68;;
80681;SDS011;70045;40.200;44.582;2024-02-23T05:34:40;15.93;;;8.18;;
80681;SDS011;70045;40.200;44.582;2024-02-23T05:37:06;16.75;;;8.25;;
80681;SDS011;70045;40.200;44.582;2024-02-23T05:39:32;15.65;;;7.82;;
80681;SDS011;70045;40.200;44.582;2024-02-23T05:41:58;14.13;;;7.10;;
80681;SDS011;70045;40.200;44.582;2024-02-23T05:44:23;11.88;;;6.38;;
80681;SDS011;70045;40.200;44.582;2024-02-23T05:46:52;12.32;;;6.30;;
80681;SDS011;70045;40.200;44.582;2024-02-23T05:49:18;12.82;;;7.03;;
80681;SDS011;70045;40.200;44.582;2024-02-23T05:51:43;10.90;;;5.88;;
80681;SDS011;70045;40.200;44.582;2024-02-23T05:54:08;12.75;;;6.32;;
80681;SDS011;70045;40.200;44.582;2024-02-23T05:56:35;14.40;;;6.93;;
80681;SDS011;70045;40.200;44.582;2024-02-23T05:59:03;15.55;;;7.47;;
80681;SDS011;70045;40.200;44.582;2024-02-23T06:01:28;13.43;;;6.90;;
80681;SDS011;70045;40.200;44.582;2024-02-23T06:03:53;13.70;;;6.82;;
80681;SDS011;70045;40.200;44.582;2024-02-23T06:06:19;16.58;;;9.27;;
80681;SDS011;70045;40.200;44.582;2024-02-23T06:08:44;16.00;;;8.25;;
80681;SDS011;70045;40.200;44.582;2024-02-23T06:11:13;12.90;;;7.35;;
80681;SDS011;70045;40.200;44.582;2024-02-23T06:13:39;13.50;;;7.20;;
80681;SDS011;70045;40.200;44.582;2024-02-23T06:16:04;15.25;;;7.43;;
80681;SDS011;70045;40.200;44.582;2024-02-23T06:18:34;18.17;;;8.38;;
80681;SDS011;70045;40.200;44.582;2024-02-23T06:21:00;16.75;;;8.75;;
80681;SDS011;70045;40.200;44.582;2024-02-23T06:23:29;18.77;;;9.02;;
80681;SDS011;70045;40.200;44.582;2024-02-23T06:25:54;13.73;;;7.50;;
80681;SDS011;70045;40.200;44.582;2024-02-23T06:28:19;14.88;;;8.30;;
80681;SDS011;70045;40.200;44.582;2024-02-23T06:30:45;16.60;;;7.90;;
80681;SDS011;70045;40.200;44.582;2024-02-23T06:33:10;16.25;;;8.15;;
80681;SDS011;70045;40.200;44.582;2024-02-23T06:35:38;16.40;;;9.10;;
80681;SDS011;70045;40.200;44.582;2024-02-23T06:38:04;17.73;;;8.02;;
80681;SDS011;70045;40.200;44.582;2024-02-23T06:40:29;14.98;;;7.68;;
80681;SDS011;70045;40.200;44.582;2024-02-23T06:42:54;14.88;;;7.72;;
80681;SDS011;70045;40.200;44.582;2024-02-23T06:45:20;14.02;;;8.00;;
80681;SDS011;70045;40.200;44.582;2024-02-23T06:47:48;16.85;;;7.63;;
80681;SDS011;70045;40.200;44.582;2024-02-23T06:50:13;16.48;;;8.65;;
80681;SDS011;70045;40.200;44.582;2024-02-23T06:52:39;16.08;;;8.40;;
80681;SDS011;70045;40.200;44.582;2024-02-23T06:55:04;16.13;;;8.18;;
80681;SDS011;70045;40.200;44.582;2024-02-23T06:57:30;17.88;;;8.23;;
80681;SDS011;70045;40.200;44.582;2024-02-23T07:00:00;17.27;;;8.93;;
80681;SDS011;70045;40.200;44.582;2024-02-23T07:02:25;16.65;;;8.27;;
80681;SDS011;70045;40.200;44.582;2024-02-23T07:04:51;18.08;;;9.20;;
80681;SDS011;70045;40.200;44.582;2024-02-23T07:07:16;17.70;;;9.75;;
80681;SDS011;70045;40.200;44.582;2024-02-23T07:09:41;22.13;;;11.18;;
80681;SDS011;70045;40.200;44.582;2024-02-23T07:12:09;15.38;;;8.63;;
80681;SDS011;70045;40.200;44.582;2024-02-23T07:14:35;19.75;;;9.48;;
80681;SDS011;70045;40.200;44.582;2024-02-23T07:17:00;21.55;;;10.38;;
80681;SDS011;70045;40.200;44.582;2024-02-23T07:19:26;24.50;;;13.27;;
80681;SDS011;70045;40.200;44.582;2024-02-23T07:21:51;29.00;;;12.70;;
80681;SDS011;70045;40.200;44.582;2024-02-23T07:24:19;25.85;;;13.70;;
80681;SDS011;70045;40.200;44.582;2024-02-23T07:26:45;25.00;;;12.32;;
80681;SDS011;70045;40.200;44.582;2024-02-23T07:29:10;28.67;;;14.23;;
80681;SDS011;70045;40.200;44.582;2024-02-23T07:31:35;30.05;;;14.80;;
80681;SDS011;70045;40.200;44.582;2024-02-23T07:34:01;34.95;;;15.40;;
80681;SDS011;70045;40.200;44.582;2024-02-23T07:36:30;31.40;;;15.10;;
80681;SDS011;70045;40.200;44.582;2024-02-23T07:38:55;32.08;;;16.30;;
80681;SDS011;70045;40.200;44.582;2024-02-23T07:41:21;34.42;;;16.73;;
80681;SDS011;70045;40.200;44.582;2024-02-23T07:43:46;38.17;;;18.10;;
80681;SDS011;70045;40.200;44.582;2024-02-23T07:46:12;35.53;;;18.02;;
80681;SDS011;70045;40.200;44.582;2024-02-23T07:48:40;34.60;;;15.63;;
80681;SDS011;70045;40.200;44.582;2024-02-23T07:51:06;31.73;;;16.08;;
80681;SDS011;70045;40.200;44.582;2024-02-23T07:53:31;36.92;;;17.23;;
80681;SDS011;70045;40.200;44.582;2024-02-23T07:55:57;28.80;;;14.27;;
80681;SDS011;70045;40.200;44.582;2024-02-23T07:58:24;26.88;;;13.38;;
80681;SDS011;70045;40.200;44.582;2024-02-23T08:00:53;30.77;;;14.57;;
80681;SDS011;70045;40.200;44.582;2024-02-23T08:03:19;31.63;;;16.13;;
80681;SDS011;70045;40.200;44.582;2024-02-23T08:05:44;27.10;;;14.40;;
80681;SDS011;70045;40.200;44.582;2024-02-23T08:08:10;24.77;;;12.82;;
80681;SDS011;70045;40.200;44.582;2024-02-23T08:10:35;24.63;;;12.80;;
80681;SDS011;70045;40.200;44.582;2024-02-23T08:13:04;20.67;;;11.07;;
80681;SDS011;70045;40.200;44.582;2024-02-23T08:15:30;18.35;;;10.05;;
80681;SDS011;70045;40.200;44.582;2024-02-23T08:17:55;23.67;;;11.13;;
80681;SDS011;70045;40.200;44.582;2024-02-23T08:20:20;21.17;;;9.70;;
80681;SDS011;70045;40.200;44.582;2024-02-23T08:22:46;18.23;;;9.90;;
80681;SDS011;70045;40.200;44.582;2024-02-23T08:25:14;18.80;;;9.43;;
80681;SDS011;70045;40.200;44.582;2024-02-23T08:27:43;16.05;;;8.05;;
80681;SDS011;70045;40.200;44.582;2024-02-23T08:30:08;12.70;;;7.03;;
80681;SDS011;70045;40.200;44.582;2024-02-23T08:32:34;12.40;;;7.13;;
80681;SDS011;70045;40.200;44.582;2024-02-23T08:34:59;14.20;;;7.93;;
80681;SDS011;70045;40.200;44.582;2024-02-23T08:37:28;13.30;;;7.53;;
80681;SDS011;70045;40.200;44.582;2024-02-23T08:39:53;11.70;;;6.45;;
80681;SDS011;70045;40.200;44.582;2024-02-23T08:42:18;12.85;;;7.03;;
80681;SDS011;70045;40.200;44.582;2024-02-23T08:44:44;11.70;;;6.80;;
80681;SDS011;70045;40.200;44.582;2024-02-23T08:47:09;11.18;;;6.45;;
80681;SDS011;70045;40.200;44.582;2024-02-23T08:49:39;12.55;;;7.50;;
80681;SDS011;70045;40.200;44.582;2024-02-23T08:52:04;17.08;;;7.88;;
80681;SDS011;70045;40.200;44.582;2024-02-23T08:54:30;14.55;;;6.40;;
80681;SDS011;70045;40.200;44.582;2024-02-23T08:56:55;10.80;;;5.90;;
80681;SDS011;70045;40.200;44.582;2024-02-23T08:59:21;9.48;;;5.43;;
80681;SDS011;70045;40.200;44.582;2024-02-23T09:01:52;9.30;;;5.13;;
80681;SDS011;70045;40.200;44.582;2024-02-23T09:04:17;9.40;;;5.25;;
80681;SDS011;70045;40.200;44.582;2024-02-23T09:06:43;10.38;;;5.55;;
80681;SDS011;70045;40.200;44.582;2024-02-23T09:09:08;8.50;;;4.53;;
80681;SDS011;70045;40.200;44.582;2024-02-23T09:11:34;10.75;;;5.50;;
80681;SDS011;70045;40.200;44.582;2024-02-23T09:14:03;13.05;;;5.50;;
80681;SDS011;70045;40.200;44.582;2024-02-23T09:16:28;9.50;;;4.68;;
80681;SDS011;70045;40.200;44.582;2024-02-23T09:18:53;10.15;;;5.15;;
80681;SDS011;70045;40.200;44.582;2024-02-23T09:21:19;10.27;;;4.78;;
80681;SDS011;70045;40.200;44.582;2024-02-23T09:23:45;10.82;;;5.00;;
80681;SDS011;70045;40.200;44.582;2024-02-23T09:26:14;9.45;;;5.03;;
80681;SDS011;70045;40.200;44.582;2024-02-23T09:28:39;9.57;;;4.65;;
80681;SDS011;70045;40.200;44.582;2024-02-23T09:31:05;10.70;;;4.90;;
80681;SDS011;70045;40.200;44.582;2024-02-23T09:33:30;8.40;;;4.85;;
80681;SDS011;70045;40.200;44.582;2024-02-23T09:35:56;10.32;;;4.57;;
80681;SDS011;70045;40.200;44.582;2024-02-23T09:38:25;8.18;;;4.05;;
80681;SDS011;70045;40.200;44.582;2024-02-23T09:40:51;7.15;;;3.90;;
80681;SDS011;70045;40.200;44.582;2024-02-23T09:43:16;6.88;;;3.85;;
80681;SDS011;70045;40.200;44.582;2024-02-23T09:45:44;9.05;;;4.47;;
80681;SDS011;70045;40.200;44.582;2024-02-23T09:48:10;8.30;;;4.28;;
80681;SDS011;70045;40.200;44.582;2024-02-23T09:50:43;8.30;;;4.45;;
80681;SDS011;70045;40.200;44.582;2024-02-23T09:53:10;8.10;;;4.30;;
80681;SDS011;70045;40.200;44.582;2024-02-23T09:55:38;8.10;;;3.83;;
80681;SDS011;70045;40.200;44.582;2024-02-23T09:58:03;7.85;;;4.10;;
80681;SDS011;70045;40.200;44.582;2024-02-23T10:00:31;7.00;;;3.47;;
80681;SDS011;70045;40.200;44.582;2024-02-23T10:03:03;7.10;;;3.70;;
80681;SDS011;70045;40.200;44.582;2024-02-23T10:05:29;6.57;;;3.60;;
80681;SDS011;70045;40.200;44.582;2024-02-23T10:07:56;8.63;;;4.40;;
80681;SDS011;70045;40.200;44.582;2024-02-23T10:10:24;6.20;;;3.53;;
80681;SDS011;70045;40.200;44.582;2024-02-23T10:12:58;7.38;;;4.10;;
80681;SDS011;70045;40.200;44.582;2024-02-23T10:15:31;7.38;;;3.38;;
80681;SDS011;70045;40.200;44.582;2024-02-23T10:17:56;6.20;;;3.40;;
80681;SDS011;70045;40.200;44.582;2024-02-23T10:20:22;6.20;;;3.78;;
80681;SDS011;70045;40.200;44.582;2024-02-23T10:22:47;6.78;;;3.80;;
80681;SDS011;70045;40.200;44.582;2024-02-23T10:25:13;6.78;;;3.75;;
80681;SDS011;70045;40.200;44.582;2024-02-23T10:27:41;8.30;;;3.72;;
80681;SDS011;70045;40.200;44.582;2024-02-23T10:30:07;6.00;;;3.40;;
80681;SDS011;70045;40.200;44.582;2024-02-23T10:32:32;5.75;;;3.38;;
80681;SDS011;70045;40.200;44.582;2024-02-23T10:35:00;7.55;;;3.65;;
80681;SDS011;70045;40.200;44.582;2024-02-23T10:37:26;6.15;;;3.67;;
80681;SDS011;70045;40.200;44.582;2024-02-23T10:39:56;9.50;;;4.22;;
80681;SDS011;70045;40.200;44.582;2024-02-23T10:42:25;8.73;;;4.05;;
80681;SDS011;70045;40.200;44.582;2024-02-23T10:44:58;9.82;;;3.28;;
80681;SDS011;70045;40.200;44.582;2024-02-23T10:47:25;6.45;;;3.13;;
80681;SDS011;70045;40.200;44.582;2024-02-23T10:49:50;6.13;;;3.50;;
80681;SDS011;70045;40.200;44.582;2024-02-23T10:52:20;7.60;;;3.78;;
80681;SDS011;70045;40.200;44.582;2024-02-23T10:54:48;6.78;;;3.60;;
80681;SDS011;70045;40.200;44.582;2024-02-23T10:57:17;6.47;;;3.78;;
80681;SDS011;70045;40.200;44.582;2024-02-23T10:59:46;6.72;;;3.97;;
80681;SDS011;70045;40.200;44.582;2024-02-23T11:02:12;10.88;;;5.40;;
80681;SDS011;70045;40.200;44.582;2024-02-23T11:04:45;8.02;;;4.13;;
80681;SDS011;70045;40.200;44.582;2024-02-23T11:07:13;8.75;;;3.85;;
80681;SDS011;70045;40.200;44.582;2024-02-23T11:09:39;6.97;;;4.00;;
80681;SDS011;70045;40.200;44.582;2024-02-23T11:12:05;7.22;;;4.05;;
80681;SDS011;70045;40.200;44.582;2024-02-23T11:14:37;9.35;;;4.20;;
80681;SDS011;70045;40.200;44.582;2024-02-23T11:17:07;6.90;;;3.63;;
80681;SDS011;70045;40.200;44.582;2024-02-23T11:19:43;5.53;;;3.00;;
80681;SDS011;70045;40.200;44.582;2024-02-23T11:22:13;7.38;;;3.10;;
80681;SDS011;70045;40.200;44.582;2024-02-23T11:24:42;5.57;;;3.10;;
80681;SDS011;70045;40.200;44.582;2024-02-23T11:27:13;5.03;;;2.97;;
80681;SDS011;70045;40.200;44.582;2024-02-23T11:29:40;5.93;;;3.17;;
80681;SDS011;70045;40.200;44.582;2024-02-23T11:32:17;6.65;;;3.60;;
80681;SDS011;70045;40.200;44.582;2024-02-23T11:35:01;4.63;;;2.72;;
80681;SDS011;70045;40.200;44.582;2024-02-23T11:37:30;6.63;;;2.88;;
80681;SDS011;70045;40.200;44.582;2024-02-23T11:39:55;6.28;;;2.85;;
80681;SDS011;70045;40.200;44.582;2024-02-23T11:42:23;5.80;;;2.95;;
80681;SDS011;70045;40.200;44.582;2024-02-23T11:44:49;7.13;;;4.28;;
80681;SDS011;70045;40.200;44.582;2024-02-23T11:47:15;9.75;;;4.28;;
80681;SDS011;70045;40.200;44.582;2024-02-23T11:49:44;8.35;;;4.45;;
80681;SDS011;70045;40.200;44.582;2024-02-23T11:52:10;10.25;;;4.68;;
80681;SDS011;70045;40.200;44.582;2024-02-23T11:54:36;9.45;;;5.03;;
80681;SDS011;70045;40.200;44.582;2024-02-23T11:57:02;9.88;;;5.05;;
80681;SDS011;70045;40.200;44.582;2024-02-23T11:59:28;8.30;;;4.60;;
80681;SDS011;70045;40.200;44.582;2024-02-23T12:01:56;7.85;;;4.55;;
80681;SDS011;70045;40.200;44.582;2024-02-23T12:04:22;6.85;;;3.90;;
80681;SDS011;70045;40.200;44.582;2024-02-23T12:06:47;7.97;;;4.78;;
80681;SDS011;70045;40.200;44.582;2024-02-23T12:09:13;7.82;;;4.45;;
80681;SDS011;70045;40.200;44.582;2024-02-23T12:11:39;9.00;;;4.18;;
80681;SDS011;70045;40.200;44.582;2024-02-23T12:14:08;16.17;;;6.13;;
80681;SDS011;70045;40.200;44.582;2024-02-23T12:16:34;9.98;;;5.22;;
80681;SDS011;70045;40.200;44.582;2024-02-23T12:19:00;11.40;;;4.72;;
80681;SDS011;70045;40.200;44.582;2024-02-23T12:21:26;11.35;;;5.72;;
80681;SDS011;70045;40.200;44.582;2024-02-23T12:23:51;12.13;;;6.13;;
80681;SDS011;70045;40.200;44.582;2024-02-23T12:26:21;15.20;;;7.32;;
80681;SDS011;70045;40.200;44.582;2024-02-23T12:28:46;11.32;;;6.47;;
80681;SDS011;70045;40.200;44.582;2024-02-23T12:31:12;13.13;;;6.60;;
80681;SDS011;70045;40.200;44.582;2024-02-23T12:33:38;12.30;;;6.68;;
80681;SDS011;70045;40.200;44.582;2024-02-23T12:36:06;14.55;;;6.30;;
80681;SDS011;70045;40.200;44.582;2024-02-23T12:38:35;12.80;;;6.15;;
80681;SDS011;70045;40.200;44.582;2024-02-23T12:41:01;11.13;;;6.18;;
80681;SDS011;70045;40.200;44.582;2024-02-23T12:43:27;8.82;;;5.32;;
80681;SDS011;70045;40.200;44.582;2024-02-23T12:45:53;10.02;;;5.25;;
80681;SDS011;70045;40.200;44.582;2024-02-23T12:48:19;9.43;;;5.00;;
80681;SDS011;70045;40.200;44.582;2024-02-23T12:50:52;8.10;;;4.15;;
80681;SDS011;70045;40.200;44.582;2024-02-23T12:55:55;4.72;;;2.67;;
80681;SDS011;70045;40.200;44.582;2024-02-23T12:58:20;6.25;;;3.13;;
80681;SDS011;70045;40.200;44.582;2024-02-23T13:00:46;7.18;;;3.38;;
80681;SDS011;70045;40.200;44.582;2024-02-23T13:03:15;11.60;;;4.80;;
80681;SDS011;70045;40.200;44.582;2024-02-23T13:05:40;7.63;;;3.67;;
80681;SDS011;70045;40.200;44.582;2024-02-23T13:08:06;9.07;;;4.80;;
80681;SDS011;70045;40.200;44.582;2024-02-23T13:10:31;8.88;;;3.90;;
80681;SDS011;70045;40.200;44.582;2024-02-23T13:12:56;7.35;;;3.75;;
80681;SDS011;70045;40.200;44.582;2024-02-23T13:15:25;5.07;;;3.00;;
80681;SDS011;70045;40.200;44.582;2024-02-23T13:17:50;4.25;;;2.25;;
80681;SDS011;70045;40.200;44.582;2024-02-23T13:20:15;7.65;;;3.10;;
80681;SDS011;70045;40.200;44.582;2024-02-23T13:22:41;13.65;;;3.33;;
80681;SDS011;70045;40.200;44.582;2024-02-23T13:25:06;9.15;;;3.00;;
80681;SDS011;70045;40.200;44.582;2024-02-23T13:27:35;7.13;;;3.50;;
80681;SDS011;70045;40.200;44.582;2024-02-23T13:30:00;8.93;;;3.42;;
80681;SDS011;70045;40.200;44.582;2024-02-23T13:32:27;6.43;;;3.65;;
80681;SDS011;70045;40.200;44.582;2024-02-23T13:34:52;7.55;;;4.13;;
80681;SDS011;70045;40.200;44.582;2024-02-23T13:37:18;6.43;;;3.20;;
80681;SDS011;70045;40.200;44.582;2024-02-23T13:39:47;7.25;;;4.10;;
80681;SDS011;70045;40.200;44.582;2024-02-23T13:42:12;7.10;;;3.92;;
80681;SDS011;70045;40.200;44.582;2024-02-23T13:44:38;11.20;;;4.30;;
80681;SDS011;70045;40.200;44.582;2024-02-23T13:47:03;13.02;;;5.60;;
80681;SDS011;70045;40.200;44.582;2024-02-23T13:49:29;18.85;;;6.15;;
80681;SDS011;70045;40.200;44.582;2024-02-23T13:51:57;12.88;;;6.03;;
80681;SDS011;70045;40.200;44.582;2024-02-23T13:54:22;10.07;;;4.53;;
80681;SDS011;70045;40.200;44.582;2024-02-23T13:56:47;9.65;;;4.75;;
80681;SDS011;70045;40.200;44.582;2024-02-23T13:59:13;12.30;;;4.93;;
80681;SDS011;70045;40.200;44.582;2024-02-23T14:01:38;12.30;;;4.95;;
80681;SDS011;70045;40.200;44.582;2024-02-23T14:04:07;11.40;;;4.50;;
80681;SDS011;70045;40.200;44.582;2024-02-23T14:06:32;9.48;;;4.28;;
80681;SDS011;70045;40.200;44.582;2024-02-23T14:08:57;10.05;;;3.50;;
80681;SDS011;70045;40.200;44.582;2024-02-23T14:11:23;7.45;;;3.05;;
80681;SDS011;70045;40.200;44.582;2024-02-23T14:13:48;7.03;;;3.05;;
80681;SDS011;70045;40.200;44.582;2024-02-23T14:16:17;6.30;;;3.42;;
80681;SDS011;70045;40.200;44.582;2024-02-23T14:18:43;7.93;;;3.20;;
80681;SDS011;70045;40.200;44.582;2024-02-23T14:21:08;11.15;;;3.70;;
80681;SDS011;70045;40.200;44.582;2024-02-23T14:23:34;7.55;;;3.92;;
80681;SDS011;70045;40.200;44.582;2024-02-23T14:25:59;11.38;;;4.38;;